Map

Track Data

SID SEASON NUMBER BASIN SUBBASIN NAME ISO_TIME NATURE LAT LON WMO_WIND WMO_PRES WMO_AGENCY TRACK_TYPE DIST2LAND LANDFALL IFLAG USA_AGENCY USA_ATCF_ID USA_LAT USA_LON USA_RECORD USA_STATUS USA_WIND USA_PRES USA_SSHS USA_R34_NE USA_R34_SE USA_R34_SW USA_R34_NW USA_R50_NE USA_R50_SE USA_R50_SW USA_R50_NW USA_R64_NE USA_R64_SE USA_R64_SW USA_R64_NW USA_POCI USA_ROCI USA_RMW USA_EYE TOKYO_LAT TOKYO_LON TOKYO_GRADE TOKYO_WIND TOKYO_PRES TOKYO_R50_DIR TOKYO_R50_LONG TOKYO_R50_SHORT TOKYO_R30_DIR TOKYO_R30_LONG TOKYO_R30_SHORT TOKYO_LAND CMA_LAT CMA_LON CMA_CAT CMA_WIND CMA_PRES HKO_LAT HKO_LON HKO_CAT HKO_WIND HKO_PRES NEWDELHI_LAT NEWDELHI_LON NEWDELHI_GRADE NEWDELHI_WIND NEWDELHI_PRES NEWDELHI_CI NEWDELHI_DP NEWDELHI_POCI REUNION_LAT REUNION_LON REUNION_TYPE REUNION_WIND REUNION_PRES REUNION_TNUM REUNION_CI REUNION_RMW REUNION_R34_NE REUNION_R34_SE REUNION_R34_SW REUNION_R34_NW REUNION_R50_NE REUNION_R50_SE REUNION_R50_SW REUNION_R50_NW REUNION_R64_NE REUNION_R64_SE REUNION_R64_SW REUNION_R64_NW BOM_LAT BOM_LON BOM_TYPE BOM_WIND BOM_PRES BOM_TNUM BOM_CI BOM_RMW BOM_R34_NE BOM_R34_SE BOM_R34_SW BOM_R34_NW BOM_R50_NE BOM_R50_SE BOM_R50_SW BOM_R50_NW BOM_R64_NE BOM_R64_SE BOM_R64_SW BOM_R64_NW BOM_ROCI BOM_POCI BOM_EYE BOM_POS_METHOD BOM_PRES_METHOD NADI_LAT NADI_LON NADI_CAT NADI_WIND NADI_PRES WELLINGTON_LAT WELLINGTON_LON WELLINGTON_WIND WELLINGTON_PRES DS824_LAT DS824_LON DS824_STAGE DS824_WIND DS824_PRES TD9636_LAT TD9636_LON TD9636_STAGE TD9636_WIND TD9636_PRES TD9635_LAT TD9635_LON TD9635_WIND TD9635_PRES TD9635_ROCI NEUMANN_LAT NEUMANN_LON NEUMANN_CLASS NEUMANN_WIND NEUMANN_PRES MLC_LAT MLC_LON MLC_CLASS MLC_WIND MLC_PRES USA_GUST BOM_GUST BOM_GUST_PER REUNION_GUST REUNION_GUST_PER USA_SEAHGT USA_SEARAD_NE USA_SEARAD_SE USA_SEARAD_SW USA_SEARAD_NW STORM_SPEED STORM_DIR
1989002S14192 1989 1 SP MM FILI 1989-01-02 00:00:00 TS -13.8000 -167.700 30 997 wellington main 486 464 ________O___O_ -1 -13.8000 -167.700 30 997 -13.8000 -167.700 TC 30 6 231
1989002S14192 1989 1 SP MM FILI 1989-01-02 03:00:00 TS -13.9951 -167.950 main 464 434 ________P___P_ -1 -13.9951 -167.950 30 997 -13.9951 -167.950 TC 32 6 230
1989002S14192 1989 1 SP MM FILI 1989-01-02 06:00:00 TS -14.2000 -168.200 30 997 wellington main 434 413 ________O___O_ -1 -14.2000 -168.200 30 997 -14.2000 -168.200 TC 35 7 229
1989002S14192 1989 1 SP MM FILI 1989-01-02 09:00:00 TS -14.4273 -168.463 main 404 380 ________P___P_ -1 -14.4273 -168.463 30 997 -14.4273 -168.463 TC 40 8 229
1989002S14192 1989 1 SP MM FILI 1989-01-02 12:00:00 TS -14.7000 -168.800 30 997 wellington main 380 340 ________O___O_ -1 -14.7000 -168.800 30 997 -14.7000 -168.800 TC 45 10 233
1989002S14192 1989 1 SP MM FILI 1989-01-02 15:00:00 TS -15.0277 -169.285 main 340 314 ________P___P_ -1 -15.0277 -169.285 30 997 -15.0277 -169.285 TC 47 12 234
1989002S14192 1989 1 SP MM FILI 1989-01-02 18:00:00 TS -15.4000 -169.800 30 997 wellington main 314 302 ________O___O_ -1 -15.4000 -169.800 30 997 -15.4000 -169.800 TC 50 12 230
1989002S14192 1989 1 SP MM FILI 1989-01-02 21:00:00 TS -15.8000 -170.241 main 310 303 ________P___P_ -1 -15.7999 -170.238 30 997 -15.8000 -170.245 TC 47 11 224
1989002S14192 1989 1 SP MM FILI 1989-01-03 00:00:00 TS -16.2000 -170.600 30 997 wellington main 318 318 ________O___O_ -1 -16.2000 -170.600 30 997 -16.2000 -170.600 TC 45 10 218
1989002S14192 1989 1 SP MM FILI 1989-01-03 03:00:00 TS -16.5649 -170.859 main 343 343 ________P___P_ -1 -16.5649 -170.888 30 997 -16.5649 -170.830 TC 42 8 212
1989002S14192 1989 1 SP MM FILI 1989-01-03 06:00:00 TS -16.9000 -171.050 30 997 wellington main 366 366 ________O___O_ -1 -16.9000 -171.100 30 997 -16.9000 -171.000 TC 40 8 210
1989002S14192 1989 1 SP MM FILI 1989-01-03 09:00:00 TS -17.2150 -171.259 main 392 392 ________P___P_ -1 -17.2150 -171.288 30 997 -17.2150 -171.230 TC 37 7 209
1989002S14192 1989 1 SP MM FILI 1989-01-03 12:00:00 TS -17.5000 -171.400 30 997 wellington main 422 422 ________O___O_ -1 -17.5000 -171.400 30 997 -17.5000 -171.400 TC 35 6 197
1989002S14192 1989 1 SP MM FILI 1989-01-03 15:00:00 TS -17.7650 -171.434 main 455 455 ________P___P_ -1 -17.7650 -171.430 30 997 -17.7650 -171.438 TC 32 5 178
1989002S14192 1989 1 SP MM FILI 1989-01-03 18:00:00 TS -18.0000 -171.400 30 997 wellington main 477 477 ________O___O_ -1 -18.0000 -171.400 30 997 -18.0000 -171.400 TC 30 4 173
1989002S14192 1989 1 SP MM FILI 1989-01-03 21:00:00 TS -18.2075 -171.372 main 499 499 ________P___P_ -1 -18.2075 -171.372 30 997 -18.2075 -171.372 TC 30 4 167
1989002S14192 1989 1 SP MM FILI 1989-01-04 00:00:00 TS -18.4000 -171.300 30 997 wellington main 523 523 ________O___O_ -1 -18.4000 -171.300 30 997 -18.4000 -171.300 TC 30 4 154
1989002S14192 1989 1 SP MM FILI 1989-01-04 03:00:00 TS -18.5925 -171.172 main 547 547 ________P___P_ -1 -18.5925 -171.172 32 996 -18.5925 -171.172 TC 30 5 145
1989002S14192 1989 1 SP MM FILI 1989-01-04 06:00:00 TS -18.8000 -171.000 35 995 wellington main 574 574 ________O___O_ -1 -18.8000 -171.000 35 995 -18.8000 -171.000 TC 30 6 143
1989002S14192 1989 1 SP MM FILI 1989-01-04 09:00:00 TS -19.0500 -170.808 main 600 600 ________P___P_ -1 -19.0500 -170.808 37 992 -19.0500 -170.808 TC 32 6 143
1989002S14192 1989 1 SP MM FILI 1989-01-04 12:00:00 TS -19.3000 -170.600 40 990 wellington main 638 638 ________O___O_ -1 -19.3000 -170.600 40 990 -19.3000 -170.600 TC 35 6 140
1989002S14192 1989 1 SP MM FILI 1989-01-04 15:00:00 TS -19.5075 -170.400 main 666 666 ________P___P_ -1 -19.5075 -170.400 40 990 -19.5075 -170.400 TC 37 6 137
1989002S14192 1989 1 SP MM FILI 1989-01-04 18:00:00 TS -19.7000 -170.200 40 990 wellington main 693 693 ________O___O_ -1 -19.7000 -170.200 40 990 -19.7000 -170.200 TC 40 5 136
1989002S14192 1989 1 SP MM FILI 1989-01-04 21:00:00 TS -19.8623 -170.030 main 721 721 ________P___P_ -1 -19.8623 -170.030 40 990 -19.8623 -170.030 TC 42 6 137
1989002S14192 1989 1 SP MM FILI 1989-01-05 00:00:00 TS -20.1000 -169.800 40 990 wellington main 749 749 ________O___O_ -1 -20.1000 -169.800 40 990 -20.1000 -169.800 TC 45 9 139
1989002S14192 1989 1 SP MM FILI 1989-01-05 03:00:00 TS -20.5201 -169.423 main 806 806 ________P___P_ -1 -20.5201 -169.423 40 990 -20.5201 -169.423 TC 47 12 140
1989002S14192 1989 1 SP MM FILI 1989-01-05 06:00:00 TS -21.0000 -169.000 40 990 wellington main 874 874 ________O___O_ -1 -21.0000 -169.000 40 990 -21.0000 -169.000 TC 50 11 141
1989002S14192 1989 1 SP MM FILI 1989-01-05 09:00:00 TS -21.3998 -168.650 main 931 931 ________P___P_ -1 -21.3998 -168.650 40 990 -21.3998 -168.650 TC 52 10 141
1989002S14192 1989 1 SP MM FILI 1989-01-05 12:00:00 TS -21.8000 -168.300 40 990 wellington main 985 985 ________O___O_ -1 -21.8000 -168.300 40 990 -21.8000 -168.300 TC 55 11 141
1989002S14192 1989 1 SP MM FILI 1989-01-05 15:00:00 TS -22.2650 -167.900 main 1053 1053 ________P___P_ -1 -22.2650 -167.900 45 987 -22.2650 -167.900 TC 57 12 141
1989002S14192 1989 1 SP MM FILI 1989-01-05 18:00:00 TS -22.7000 -167.500 50 985 wellington main 1112 1112 ________O___O_ -1 -22.7000 -167.500 50 985 -22.7000 -167.500 TC 60 10 137
1989002S14192 1989 1 SP MM FILI 1989-01-05 21:00:00 TS -22.9923 -167.157 main 1156 1156 ________P___P_ -1 -22.9923 -167.157 50 985 -22.9923 -167.157 TC 60 9 133
1989002S14192 1989 1 SP MM FILI 1989-01-06 00:00:00 TS -23.3000 -166.800 50 985 wellington main 1205 1205 ________O___O_ -1 -23.3000 -166.800 50 985 -23.3000 -166.800 TC 60 10 137
1989002S14192 1989 1 SP MM FILI 1989-01-06 03:00:00 TS -23.7472 -166.394 main 1264 1264 ________P___P_ -1 -23.7472 -166.394 50 985 -23.7472 -166.394 TC 60 13 140
1989002S14192 1989 1 SP MM FILI 1989-01-06 06:00:00 TS -24.3000 -165.900 50 985 wellington main 1347 1347 ________O___O_ -1 -24.3000 -165.900 50 985 -24.3000 -165.900 TC 60 16 139
1989002S14192 1989 1 SP MM FILI 1989-01-06 09:00:00 TS -24.9275 -165.287 main 1436 1436 ________P___P_ -1 -24.9275 -165.287 50 985 -24.9275 -165.287 TC 60 18 138
1989002S14192 1989 1 SP MM FILI 1989-01-06 12:00:00 TS -25.6000 -164.600 50 985 wellington main 1539 1539 ________O___O_ -1 -25.6000 -164.600 50 985 -25.6000 -164.600 TC 60 18 136
1989002S14192 1989 1 SP MM FILI 1989-01-06 15:00:00 TS -26.2197 -163.914 main 1634 1634 ________P___P_ -1 -26.2197 -163.914 50 985 -26.2197 -163.914 TC 60 18 136
1989002S14192 1989 1 SP MM FILI 1989-01-06 18:00:00 TS -26.9000 -163.200 50 985 wellington main 1738 1738 ________O___O_ -1 -26.9000 -163.200 50 985 -26.9000 -163.200 TC 60 20 140
1989002S14192 1989 1 SP MM FILI 1989-01-06 21:00:00 TS -27.7418 -162.480 main 1850 1850 ________P___P_ -1 -27.7418 -162.480 47 986 -27.7418 -162.480 TC 57 22 142
1989002S14192 1989 1 SP MM FILI 1989-01-07 00:00:00 TS -28.6000 -161.700 45 987 wellington main 1978 1978 ________O___O_ -1 -28.6000 -161.700 45 987 -28.6000 -161.700 TC 55 21 139
1989002S14192 1989 1 SP MM FILI 1989-01-07 03:00:00 TS -29.3428 -160.903 main 2086 2086 ________P___P_ -1 -29.3428 -160.903 42 988 -29.3428 -160.903 TC 52 21 132
1989002S14192 1989 1 SP MM FILI 1989-01-07 06:00:00 TS -30.0000 -159.900 40 990 wellington main 2152 2152 ________O___O_ -1 -30.0000 -159.900 40 990 -30.0000 -159.900 TC 50 24 122
1989002S14192 1989 1 SP MM FILI 1989-01-07 09:00:00 TS -30.6105 -158.541 main 2239 2239 ________P___P_ -1 -30.6105 -158.541 37 992 -30.6105 -158.541 TC 45 27 114
1989002S14192 1989 1 SP MM FILI 1989-01-07 12:00:00 TS -31.1000 -157.000 35 995 wellington main 2343 2343 ________O___O_ -1 -31.1000 -157.000 35 995 -31.1000 -157.000 TC 40 27 108
1989002S14192 1989 1 SP MM FILI 1989-01-07 15:00:00 TS -31.4585 -155.506 main 2455 2455 ________P___P_ -1 -31.4585 -155.506 32 996 -31.4585 -155.506 TC 37 26 103
1989002S14192 1989 1 SP MM FILI 1989-01-07 18:00:00 TS -31.7000 -154.000 30 997 wellington main 2576 2576 ________O___O_ -1 -31.7000 -154.000 30 997 -31.7000 -154.000 TC 35 26 99
1989002S14192 1989 1 SP MM FILI 1989-01-07 21:00:00 TS -31.8709 -152.499 main 2699 2699 ________P___P_ -1 -31.8709 -152.499 30 997 -31.8709 -152.499 TC 32 26 97
1989002S14192 1989 1 SP MM FILI 1989-01-08 00:00:00 TS -32.0000 -151.000 30 997 wellington main 2826 ________O___O_ -1 -32.0000 -151.000 30 997 -32.0000 -151.000 TC 30 26 96

Digital Typhoon Data and Search

About IBTrACS Database

This database is a web-friendly format of International Best Track Archive for Climate Stewardship (IBTrACS), a global best track data archive curated by NOAA dating back to 1842.

Updated: 2021-10-08